Time;durP1;ratioP1;P1;durP2;ratioP2;P2;SDS_P1;SDS_P2;PMS_P1;PMS_P2;Temp;Humidity;BMP_temperature;BMP_pressure;BME280_temperature;BME280_humidity;BME280_pressure;Samples;Min_cycle;Max_cycle;Signal;HPM_P1;HPM_P2
2023/01/16 00:03:52;;;;;;;;;;;16.80;46.10;;;;;;10247774;28;1498;-78
2023/01/16 00:08:48;;;;;;;;;;;16.80;46.20;;;;;;10247250;28;825;-78
2023/01/16 00:13:44;;;;;;;;;;;16.80;46.10;;;;;;10247222;28;1910;-78
2023/01/16 00:18:41;;;;;;;;;;;16.80;46.10;;;;;;10247283;28;1016;-78
2023/01/16 00:23:36;;;;;;;;;;;16.80;46.20;;;;;;10246955;28;917;-78
2023/01/16 00:28:32;;;;;;;;;;;16.80;46.20;;;;;;10246885;28;834;-78
2023/01/16 00:33:27;;;;;;;;;;;16.80;46.30;;;;;;10247689;28;1902;-78
2023/01/16 00:38:23;;;;;;;;;;;16.80;46.20;;;;;;10245859;28;829;-78
2023/01/16 00:43:18;;;;;;;;;;;16.80;46.20;;;;;;10246877;28;940;-78
2023/01/16 00:48:13;;;;;;;;;;;16.80;46.20;;;;;;10245522;28;905;-78
2023/01/16 00:53:09;;;;;;;;;;;16.80;46.40;;;;;;10245758;28;1902;-78
2023/01/16 00:58:04;;;;;;;;;;;16.80;46.30;;;;;;10246315;28;888;-78
2023/01/16 01:03:00;;;;;;;;;;;16.80;46.70;;;;;;10245530;28;806;-78
2023/01/16 01:07:55;;;;;;;;;;;16.80;46.20;;;;;;10245312;28;985;-78
2023/01/16 01:12:50;;;;;;;;;;;16.80;46.20;;;;;;10245207;28;2031;-78
2023/01/16 01:17:46;;;;;;;;;;;16.80;46.30;;;;;;10244414;28;1043;-78
2023/01/16 01:22:41;;;;;;;;;;;16.80;46.40;;;;;;10244198;28;825;-78
2023/01/16 01:27:37;;;;;;;;;;;16.80;46.30;;;;;;10244779;28;826;-78
2023/01/16 01:32:32;;;;;;;;;;;16.80;46.50;;;;;;10244513;28;1440;-78
2023/01/16 01:37:27;;;;;;;;;;;16.80;46.40;;;;;;10245064;28;1918;-78
2023/01/16 01:47:36;;;;;;;;;;;16.80;46.60;;;;;;10243718;28;605;-78
2023/01/16 01:52:32;;;;;;;;;;;16.80;46.50;;;;;;10244727;28;875;-78
2023/01/16 01:57:27;;;;;;;;;;;16.80;46.50;;;;;;10244112;28;1886;-78
2023/01/16 02:02:23;;;;;;;;;;;16.80;46.50;;;;;;10244066;28;929;-78
2023/01/16 02:07:18;;;;;;;;;;;16.80;46.50;;;;;;10243872;28;767;-78
2023/01/16 02:12:13;;;;;;;;;;;16.80;46.60;;;;;;10243719;28;878;-78
2023/01/16 02:22:23;;;;;;;;;;;16.80;46.60;;;;;;10243145;28;667;-78
2023/01/16 02:27:18;;;;;;;;;;;16.70;46.70;;;;;;10244705;28;873;-78
2023/01/16 02:32:14;;;;;;;;;;;16.80;46.70;;;;;;10243956;28;1216;-78
2023/01/16 02:37:09;;;;;;;;;;;16.80;46.70;;;;;;10251655;28;1910;-78
2023/01/16 02:42:04;;;;;;;;;;;16.80;46.70;;;;;;10250934;28;877;-78
2023/01/16 02:47:00;;;;;;;;;;;16.80;46.70;;;;;;10250733;28;862;-78
2023/01/16 02:51:55;;;;;;;;;;;16.80;46.70;;;;;;10250555;28;821;-78
2023/01/16 02:56:50;;;;;;;;;;;16.80;46.70;;;;;;10250345;28;1902;-78
2023/01/16 03:01:46;;;;;;;;;;;16.80;46.70;;;;;;10248939;28;924;-78
2023/01/16 03:06:41;;;;;;;;;;;16.80;46.80;;;;;;10251279;28;778;-78
2023/01/16 03:11:37;;;;;;;;;;;16.80;46.70;;;;;;10249858;28;865;-78
2023/01/16 03:16:32;;;;;;;;;;;16.80;46.70;;;;;;10248978;28;1902;-78
2023/01/16 03:21:27;;;;;;;;;;;16.80;46.80;;;;;;10249554;28;877;-78
2023/01/16 03:26:23;;;;;;;;;;;16.80;46.80;;;;;;10250057;28;769;-78
2023/01/16 03:31:18;;;;;;;;;;;16.80;46.80;;;;;;10249760;28;942;-78
2023/01/16 03:36:13;;;;;;;;;;;16.80;46.80;;;;;;10249944;28;1895;-77
2023/01/16 03:41:09;;;;;;;;;;;16.80;46.90;;;;;;10249315;28;846;-77
2023/01/16 03:46:04;;;;;;;;;;;16.70;46.90;;;;;;10248346;28;818;-77
2023/01/16 03:50:59;;;;;;;;;;;16.80;46.90;;;;;;10248992;28;758;-78
2023/01/16 03:55:55;;;;;;;;;;;16.80;46.80;;;;;;10248877;28;1950;-78
2023/01/16 04:00:50;;;;;;;;;;;16.80;46.80;;;;;;10248027;28;858;-78
2023/01/16 04:05:46;;;;;;;;;;;16.70;46.80;;;;;;10247804;28;875;-78
2023/01/16 04:10:41;;;;;;;;;;;16.70;46.80;;;;;;10248237;28;843;-78
2023/01/16 04:15:36;;;;;;;;;;;16.70;46.80;;;;;;10247927;28;1898;-78
2023/01/16 04:20:32;;;;;;;;;;;16.70;46.90;;;;;;10247221;28;1191;-78
2023/01/16 04:25:27;;;;;;;;;;;16.80;46.90;;;;;;10247051;28;897;-78
2023/01/16 04:30:22;;;;;;;;;;;16.70;46.90;;;;;;10248033;28;892;-78
2023/01/16 04:35:18;;;;;;;;;;;16.70;46.90;;;;;;10246567;28;1910;-78
2023/01/16 04:40:13;;;;;;;;;;;16.80;47.00;;;;;;10246348;28;890;-78
2023/01/16 04:45:09;;;;;;;;;;;16.80;47.10;;;;;;10246213;28;833;-78
2023/01/16 04:50:04;;;;;;;;;;;16.70;47.00;;;;;;10246057;28;813;-78
2023/01/16 04:55:00;;;;;;;;;;;16.70;47.00;;;;;;10246303;28;1902;-78
2023/01/16 04:59:55;;;;;;;;;;;16.70;47.00;;;;;;10246293;28;862;-78
2023/01/16 05:04:50;;;;;;;;;;;16.80;47.00;;;;;;10246067;28;958;-77
2023/01/16 05:09:46;;;;;;;;;;;16.80;46.90;;;;;;10244782;28;861;-77
2023/01/16 05:14:41;;;;;;;;;;;16.80;47.00;;;;;;10245166;28;1961;-77
2023/01/16 05:19:36;;;;;;;;;;;16.80;47.00;;;;;;10245070;28;985;-77
2023/01/16 05:24:32;;;;;;;;;;;16.80;47.00;;;;;;10245482;28;813;-77
2023/01/16 05:29:27;;;;;;;;;;;16.80;47.00;;;;;;10245360;28;810;-77
2023/01/16 05:34:22;;;;;;;;;;;16.80;47.10;;;;;;10244586;28;1907;-77
2023/01/16 05:39:18;;;;;;;;;;;16.80;47.10;;;;;;10245225;28;978;-77
2023/01/16 05:44:14;;;;;;;;;;;16.70;47.10;;;;;;10244261;28;1092;-77
2023/01/16 05:49:10;;;;;;;;;;;16.70;47.20;;;;;;10244377;28;810;-77
2023/01/16 05:54:05;;;;;;;;;;;16.70;47.30;;;;;;10244722;28;1918;-77
2023/01/16 05:59:01;;;;;;;;;;;16.70;47.30;;;;;;10244040;28;813;-77
2023/01/16 06:03:56;;;;;;;;;;;16.70;47.30;;;;;;10243961;28;842;-80
2023/01/16 06:08:51;;;;;;;;;;;16.70;47.20;;;;;;10247384;28;786;-80
2023/01/16 06:13:47;;;;;;;;;;;16.80;47.20;;;;;;10251372;28;1973;-78
2023/01/16 06:18:42;;;;;;;;;;;16.80;47.20;;;;;;10251825;28;861;-70
2023/01/16 06:23:38;;;;;;;;;;;17.10;49.10;;;;;;10252414;28;920;-75
2023/01/16 06:28:33;;;;;;;;;;;17.30;49.70;;;;;;10251411;28;938;-75
2023/01/16 06:33:28;;;;;;;;;;;17.30;49.50;;;;;;10251661;28;1910;-75
2023/01/16 06:38:24;;;;;;;;;;;17.30;49.60;;;;;;10249378;28;1188;-75
2023/01/16 06:43:19;;;;;;;;;;;17.40;49.60;;;;;;10250945;28;821;-74
2023/01/16 06:48:14;;;;;;;;;;;17.40;49.50;;;;;;10250775;28;790;-75
2023/01/16 06:53:10;;;;;;;;;;;17.40;49.60;;;;;;10251104;28;1906;-75
2023/01/16 06:58:05;;;;;;;;;;;17.40;49.50;;;;;;10251282;28;1016;-75
2023/01/16 07:03:01;;;;;;;;;;;17.40;49.50;;;;;;10250844;28;897;-75
2023/01/16 07:07:56;;;;;;;;;;;17.40;49.50;;;;;;10250878;28;885;-76
2023/01/16 07:12:54;;;;;;;;;;;17.40;49.50;;;;;;10249285;28;950;-76
2023/01/16 07:23:04;;;;;;;;;;;17.30;49.50;;;;;;10248115;28;609;-76
2023/01/16 07:27:59;;;;;;;;;;;17.30;49.60;;;;;;10248701;28;842;-80
2023/01/16 07:32:54;;;;;;;;;;;17.30;49.60;;;;;;10249522;28;1420;-74
2023/01/16 07:37:51;;;;;;;;;;;17.30;49.50;;;;;;10249086;28;1963;-75
2023/01/16 07:42:47;;;;;;;;;;;17.40;49.70;;;;;;10249227;28;840;-76
2023/01/16 07:47:42;;;;;;;;;;;17.40;49.70;;;;;;10248547;28;789;-77
2023/01/16 07:52:37;;;;;;;;;;;17.40;49.60;;;;;;10247800;28;874;-75
2023/01/16 07:57:33;;;;;;;;;;;17.40;49.50;;;;;;10248087;28;1953;-72
2023/01/16 08:02:34;;;;;;;;;;;17.40;49.70;;;;;;10248116;28;1083;-76
2023/01/16 08:07:29;;;;;;;;;;;17.30;49.60;;;;;;10247828;28;862;-76
2023/01/16 08:12:25;;;;;;;;;;;17.20;49.80;;;;;;10248850;28;837;-76
2023/01/16 08:17:20;;;;;;;;;;;17.10;49.70;;;;;;10247313;28;1902;-76
2023/01/16 08:22:16;;;;;;;;;;;17.10;49.70;;;;;;10248001;28;806;-76
2023/01/16 08:27:11;;;;;;;;;;;17.10;49.50;;;;;;10247108;28;905;-77
2023/01/16 08:32:06;;;;;;;;;;;17.00;49.40;;;;;;10245812;28;995;-76
2023/01/16 08:37:04;;;;;;;;;;;17.00;49.40;;;;;;10245578;28;1906;-88
2023/01/16 08:52:30;;;;;;;;;;;17.00;49.30;;;;;;10246227;28;600;-76
2023/01/16 08:57:25;;;;;;;;;;;17.00;49.20;;;;;;10245985;28;1906;-76
2023/01/16 09:02:20;;;;;;;;;;;17.00;49.20;;;;;;10246027;28;854;-76
2023/01/16 09:07:16;;;;;;;;;;;17.00;49.20;;;;;;10246379;28;806;-76
2023/01/16 09:17:25;;;;;;;;;;;17.00;49.20;;;;;;10244548;28;1906;-76
2023/01/16 09:22:20;;;;;;;;;;;16.90;49.20;;;;;;10245887;28;884;-77
2023/01/16 09:27:18;;;;;;;;;;;16.90;49.10;;;;;;10245459;28;849;-76
2023/01/16 09:32:13;;;;;;;;;;;17.00;49.20;;;;;;10244752;28;1061;-80
2023/01/16 09:37:09;;;;;;;;;;;17.00;49.10;;;;;;10244513;28;1983;-80
2023/01/16 09:47:18;;;;;;;;;;;16.90;49.10;;;;;;10243905;28;683;-71
2023/01/16 10:02:43;;;;;;;;;;;17.20;49.20;;;;;;10243505;28;608;-74
2023/01/16 10:07:38;;;;;;;;;;;17.10;49.40;;;;;;10244550;28;865;-74
2023/01/16 10:12:34;;;;;;;;;;;17.00;49.30;;;;;;10243679;28;859;-77
2023/01/16 10:17:29;;;;;;;;;;;17.10;49.40;;;;;;10243704;28;1906;-78
2023/01/16 10:22:24;;;;;;;;;;;17.00;49.40;;;;;;10243433;28;773;-73
2023/01/16 10:27:20;;;;;;;;;;;17.00;49.40;;;;;;10244954;28;850;-76
2023/01/16 10:32:15;;;;;;;;;;;17.00;49.50;;;;;;10243260;28;1433;-75
2023/01/16 10:37:11;;;;;;;;;;;17.00;49.40;;;;;;10242789;28;1919;-77
2023/01/16 10:52:34;;;;;;;;;;;17.00;49.60;;;;;;10242706;28;608;-75
2023/01/16 10:57:30;;;;;;;;;;;17.10;49.60;;;;;;10249570;28;1955;-77
2023/01/16 11:02:25;;;;;;;;;;;17.20;49.70;;;;;;10250469;28;899;-77
2023/01/16 11:07:20;;;;;;;;;;;17.10;49.80;;;;;;10250083;28;978;-75
2023/01/16 11:22:45;;;;;;;;;;;17.00;49.60;;;;;;10249022;28;588;-75
2023/01/16 11:27:41;;;;;;;;;;;17.00;49.50;;;;;;10249950;28;794;-75
2023/01/16 11:32:38;;;;;;;;;;;17.00;49.60;;;;;;10249494;28;1213;-75
2023/01/16 11:37:33;;;;;;;;;;;17.00;49.50;;;;;;10249665;28;1969;-73
2023/01/16 11:47:43;;;;;;;;;;;16.90;49.30;;;;;;10248256;28;608;-75
2023/01/16 11:52:39;;;;;;;;;;;17.00;49.30;;;;;;10248984;28;848;-75
2023/01/16 11:57:34;;;;;;;;;;;17.00;49.30;;;;;;10248209;28;1898;-75
2023/01/16 12:02:29;;;;;;;;;;;17.00;49.30;;;;;;10248052;28;818;-75
2023/01/16 12:07:25;;;;;;;;;;;17.00;49.20;;;;;;10247416;28;910;-75
2023/01/16 12:17:42;;;;;;;;;;;17.00;49.10;;;;;;10224288;28;1891;-75
2023/01/16 12:22:37;;;;;;;;;;;16.90;49.10;;;;;;10247808;28;897;-75
2023/01/16 12:27:33;;;;;;;;;;;16.90;49.10;;;;;;10247035;28;783;-74
2023/01/16 12:32:28;;;;;;;;;;;16.90;49.20;;;;;;10247245;28;986;-74
2023/01/16 12:37:23;;;;;;;;;;;16.90;49.10;;;;;;10247033;28;1981;-76
2023/01/16 12:47:33;;;;;;;;;;;17.00;48.90;;;;;;10246506;28;604;-75
2023/01/16 12:52:28;;;;;;;;;;;17.10;48.90;;;;;;10246025;28;874;-74
2023/01/16 12:57:23;;;;;;;;;;;17.20;49.30;;;;;;10245855;28;1965;-74
2023/01/16 13:02:19;;;;;;;;;;;17.20;48.70;;;;;;10245720;28;886;-78
2023/01/16 13:07:14;;;;;;;;;;;17.20;48.70;;;;;;10244957;28;909;-78
2023/01/16 13:17:23;;;;;;;;;;;17.10;48.90;;;;;;10243850;28;2063;-75
2023/01/16 13:22:19;;;;;;;;;;;17.10;48.90;;;;;;10244800;28;861;-75
2023/01/16 13:27:14;;;;;;;;;;;17.10;48.90;;;;;;10244853;28;875;-75
2023/01/16 13:32:10;;;;;;;;;;;17.00;48.90;;;;;;10245285;28;859;-74
2023/01/16 13:37:05;;;;;;;;;;;17.00;48.80;;;;;;10244288;28;1981;-75
2023/01/16 13:42:00;;;;;;;;;;;17.00;48.90;;;;;;10245025;28;892;-76
2023/01/16 13:46:56;;;;;;;;;;;17.00;49.00;;;;;;10244922;28;747;-75
2023/01/16 13:51:51;;;;;;;;;;;17.00;48.90;;;;;;10244193;28;894;-74
2023/01/16 13:56:47;;;;;;;;;;;16.90;49.00;;;;;;10244006;28;1918;-74
2023/01/16 14:01:42;;;;;;;;;;;17.00;49.20;;;;;;10243766;28;984;-76
2023/01/16 14:06:38;;;;;;;;;;;17.00;49.40;;;;;;10243285;28;1060;-75
2023/01/16 14:11:33;;;;;;;;;;;16.90;49.50;;;;;;10243845;28;942;-75
2023/01/16 14:16:33;;;;;;;;;;;16.90;49.60;;;;;;10244456;28;1961;-75
2023/01/16 14:21:29;;;;;;;;;;;16.90;49.50;;;;;;10243589;28;875;-75
2023/01/16 14:26:24;;;;;;;;;;;16.90;49.50;;;;;;10243431;28;790;-69
2023/01/16 14:31:19;;;;;;;;;;;17.10;51.70;;;;;;10249345;28;899;-69
2023/01/16 14:36:15;;;;;;;;;;;17.40;53.20;;;;;;10251889;28;1975;-68
2023/01/16 14:57:09;;;;;;;;;;;17.20;53.00;;;;;;10176698;28;1906;-77
2023/01/16 15:07:10;;;;;;;;;;;17.00;52.60;;;;;;8455353;22;3316;-77
2023/01/16 15:12:05;;;;;;;;;;;16.90;52.30;;;;;;10265645;28;1714;-74
2023/01/16 15:22:15;;;;;;;;;;;17.00;51.80;;;;;;10249189;28;595;-74
2023/01/16 15:27:10;;;;;;;;;;;16.90;51.60;;;;;;10249647;28;852;-76
2023/01/16 15:32:06;;;;;;;;;;;16.90;51.50;;;;;;10249820;28;835;-76
2023/01/16 15:37:04;;;;;;;;;;;16.90;51.40;;;;;;10247665;28;1906;-75
2023/01/16 15:47:13;;;;;;;;;;;16.90;51.20;;;;;;10248380;28;608;-77
2023/01/16 15:52:09;;;;;;;;;;;16.80;51.10;;;;;;10248576;28;772;-77
2023/01/16 15:57:04;;;;;;;;;;;16.80;51.10;;;;;;10248272;28;1910;-77
2023/01/16 16:01:59;;;;;;;;;;;16.80;51.00;;;;;;10248161;28;847;-77
2023/01/16 16:06:55;;;;;;;;;;;16.90;51.00;;;;;;10248086;28;1157;-77
2023/01/16 16:11:55;;;;;;;;;;;16.80;50.80;;;;;;10247724;28;815;-77
2023/01/16 16:27:18;;;;;;;;;;;16.90;50.70;;;;;;10246770;28;624;-76
2023/01/16 16:32:13;;;;;;;;;;;16.90;50.60;;;;;;10247482;28;853;-78
2023/01/16 16:37:11;;;;;;;;;;;16.90;50.60;;;;;;10246885;28;1969;-80
2023/01/16 16:47:20;;;;;;;;;;;16.90;50.60;;;;;;10246530;28;597;-78
2023/01/16 16:52:16;;;;;;;;;;;16.90;50.60;;;;;;10246009;28;868;-80
2023/01/16 16:57:11;;;;;;;;;;;17.00;50.60;;;;;;10246000;28;1974;-80
2023/01/16 17:02:07;;;;;;;;;;;17.00;50.60;;;;;;10246605;28;879;-78
2023/01/16 17:07:05;;;;;;;;;;;17.00;50.60;;;;;;10245592;28;1170;-76
2023/01/16 17:12:00;;;;;;;;;;;17.00;50.60;;;;;;10245565;28;778;-75
2023/01/16 17:16:56;;;;;;;;;;;17.00;50.50;;;;;;10245815;28;1917;-71
2023/01/16 17:21:51;;;;;;;;;;;17.10;51.20;;;;;;10245784;28;841;-71
2023/01/16 17:26:46;;;;;;;;;;;17.40;52.90;;;;;;10245594;28;829;-72
2023/01/16 17:31:42;;;;;;;;;;;17.60;53.50;;;;;;10245473;28;875;-71
2023/01/16 17:36:37;;;;;;;;;;;17.70;53.80;;;;;;10243861;28;1906;-74
2023/01/16 17:46:28;;;;;;;;;;;17.30;53.70;;;;;;10244550;28;896;-74
2023/01/16 17:51:24;;;;;;;;;;;17.20;54.00;;;;;;10244330;28;752;-74
2023/01/16 17:56:20;;;;;;;;;;;17.10;53.10;;;;;;10244807;28;1906;-73
2023/01/16 18:01:15;;;;;;;;;;;17.10;53.00;;;;;;10244050;28;869;-78
2023/01/16 18:06:11;;;;;;;;;;;17.10;52.60;;;;;;10255514;28;1306;-71
2023/01/16 18:26:48;;;;;;;;;;;17.10;52.00;;;;;;10256749;28;600;-86
2023/01/16 18:32:19;;;;;;;;;;;17.10;51.80;;;;;;10256910;28;813;-80
2023/01/16 18:36:59;;;;;;;;;;;17.10;51.80;;;;;;10256164;28;1959;-79
2023/01/16 19:02:53;;;;;;;;;;;17.10;51.20;;;;;;10256643;28;619;-79
2023/01/16 19:07:50;;;;;;;;;;;17.10;51.20;;;;;;10257025;28;1312;-79
2023/01/16 19:12:46;;;;;;;;;;;17.10;51.10;;;;;;10256900;28;883;-78
2023/01/16 19:17:41;;;;;;;;;;;17.10;51.00;;;;;;10249923;28;1918;-81
2023/01/16 19:22:36;;;;;;;;;;;17.10;51.00;;;;;;10249826;28;898;-83
2023/01/16 19:27:33;;;;;;;;;;;17.20;50.90;;;;;;10249588;28;949;-83
2023/01/16 19:32:29;;;;;;;;;;;17.10;50.80;;;;;;10249371;28;805;-79
2023/01/16 19:37:25;;;;;;;;;;;17.10;50.80;;;;;;10249058;28;1901;-76
2023/01/16 19:47:34;;;;;;;;;;;17.10;51.20;;;;;;10248435;28;659;-77
2023/01/16 19:52:29;;;;;;;;;;;17.10;50.50;;;;;;10249190;28;876;-77
2023/01/16 19:57:25;;;;;;;;;;;17.10;50.40;;;;;;10248109;28;1906;-77
2023/01/16 20:02:20;;;;;;;;;;;17.10;50.40;;;;;;10248062;28;890;-77
2023/01/16 20:07:16;;;;;;;;;;;17.10;50.30;;;;;;10248384;28;1149;-76
2023/01/16 20:12:23;;;;;;;;;;;17.10;50.20;;;;;;10247947;28;945;-76
2023/01/16 20:17:19;;;;;;;;;;;17.10;50.20;;;;;;10248096;28;1914;-77
2023/01/16 20:22:14;;;;;;;;;;;17.20;50.10;;;;;;10247693;28;837;-77
2023/01/16 20:27:09;;;;;;;;;;;17.10;50.00;;;;;;10246194;28;814;-77
2023/01/16 20:32:05;;;;;;;;;;;17.10;50.00;;;;;;10247570;28;878;-77
2023/01/16 20:37:01;;;;;;;;;;;17.20;50.10;;;;;;10247387;28;1975;-76
2023/01/16 20:47:10;;;;;;;;;;;17.10;50.00;;;;;;10245863;28;1172;-76
2023/01/16 20:52:05;;;;;;;;;;;17.10;50.10;;;;;;10246352;28;761;-76
2023/01/16 20:57:01;;;;;;;;;;;17.00;50.00;;;;;;10246070;28;1914;-76
2023/01/16 21:01:58;;;;;;;;;;;17.00;50.10;;;;;;10246547;28;829;-76
2023/01/16 21:06:54;;;;;;;;;;;17.00;50.10;;;;;;10245768;28;1404;-76
2023/01/16 21:22:20;;;;;;;;;;;17.00;50.00;;;;;;10244720;28;607;-78
2023/01/16 21:27:16;;;;;;;;;;;17.00;50.00;;;;;;10245646;28;726;-76
2023/01/16 21:32:11;;;;;;;;;;;16.90;50.00;;;;;;10245330;28;848;-75
2023/01/16 21:37:06;;;;;;;;;;;17.00;50.00;;;;;;10244525;28;1906;-76
2023/01/16 21:47:16;;;;;;;;;;;17.00;49.90;;;;;;10243691;28;675;-80
2023/01/16 21:52:11;;;;;;;;;;;17.10;50.10;;;;;;10244332;28;1143;-73
2023/01/16 21:57:07;;;;;;;;;;;17.00;50.20;;;;;;10244629;28;1973;-73
2023/01/16 22:02:02;;;;;;;;;;;17.00;50.30;;;;;;10245345;28;833;-73
2023/01/16 22:06:57;;;;;;;;;;;16.90;50.20;;;;;;10243335;28;1268;-75
2023/01/16 22:22:24;;;;;;;;;;;17.00;50.10;;;;;;10243221;28;600;-75
2023/01/16 22:27:20;;;;;;;;;;;16.90;50.00;;;;;;10243654;28;773;-74
2023/01/16 22:32:16;;;;;;;;;;;16.90;50.00;;;;;;10243556;28;870;-73
2023/01/16 22:37:12;;;;;;;;;;;16.90;50.00;;;;;;10243072;28;1956;-75
2023/01/16 22:42:07;;;;;;;;;;;16.90;50.00;;;;;;10243384;28;786;-74
2023/01/16 22:47:05;;;;;;;;;;;16.90;50.00;;;;;;10243894;28;879;-75
2023/01/16 22:52:01;;;;;;;;;;;16.90;49.90;;;;;;10248077;28;983;-75
2023/01/16 22:56:56;;;;;;;;;;;16.90;49.90;;;;;;10250926;28;1913;-77
2023/01/16 23:01:52;;;;;;;;;;;16.90;50.00;;;;;;10250309;28;912;-76
2023/01/16 23:06:48;;;;;;;;;;;16.90;50.00;;;;;;10251094;28;1110;-77
2023/01/16 23:11:43;;;;;;;;;;;16.90;50.00;;;;;;10250821;28;1721;-75
2023/01/16 23:16:38;;;;;;;;;;;16.90;49.90;;;;;;10249281;28;1910;-75
2023/01/16 23:21:34;;;;;;;;;;;16.90;50.40;;;;;;10249257;28;829;-76
2023/01/16 23:26:29;;;;;;;;;;;16.90;49.70;;;;;;10250274;28;936;-73
2023/01/16 23:31:27;;;;;;;;;;;16.90;49.80;;;;;;10250164;28;866;-74
2023/01/16 23:36:22;;;;;;;;;;;16.90;49.70;;;;;;10249897;28;1938;-74
2023/01/16 23:41:18;;;;;;;;;;;16.90;49.80;;;;;;10249755;28;798;-75
2023/01/16 23:46:13;;;;;;;;;;;16.80;49.70;;;;;;10248894;28;841;-73
2023/01/16 23:51:08;;;;;;;;;;;16.90;49.70;;;;;;10249471;28;933;-74
2023/01/16 23:56:04;;;;;;;;;;;16.90;49.60;;;;;;10248459;28;1906;-74
